Time;durP1;ratioP1;P1;durP2;ratioP2;P2;SDS_P1;SDS_P2;PMS_P1;PMS_P2;Temp;Humidity;BMP_temperature;BMP_pressure;BME280_temperature;BME280_humidity;BME280_pressure;Samples;Min_cycle;Max_cycle;Signal;HPM_P1;HPM_P2
2020/12/16 00:01:17;;;;;;;25.90;20.80;;;;;;;3.73;100.00;98140.44;5007792;28;20209;-71
2020/12/16 00:03:44;;;;;;;24.07;19.57;;;;;;;3.68;100.00;98138.19;5004166;28;20433;-71
2020/12/16 00:06:11;;;;;;;26.33;21.20;;;;;;;3.62;100.00;98136.03;4990238;28;20355;-71
2020/12/16 00:08:38;;;;;;;28.03;20.40;;;;;;;3.62;100.00;98131.63;4983941;28;20209;-68
2020/12/16 00:11:05;;;;;;;25.60;20.07;;;;;;;3.66;100.00;98134.84;5005137;28;20209;-71
2020/12/16 00:13:32;;;;;;;25.77;20.73;;;;;;;3.71;100.00;98132.72;4974954;28;20212;-68
2020/12/16 00:16:00;;;;;;;25.77;20.67;;;;;;;3.66;100.00;98137.47;4997006;28;20227;-72
2020/12/16 00:18:27;;;;;;;23.90;19.23;;;;;;;3.62;100.00;98134.25;5002835;28;20227;-69
2020/12/16 00:20:55;;;;;;;24.30;19.43;;;;;;;3.61;100.00;98129.13;4988133;28;20725;-71
2020/12/16 00:23:21;;;;;;;27.53;21.07;;;;;;;3.64;100.00;98128.06;4993528;28;20255;-69
2020/12/16 00:25:48;;;;;;;26.33;20.67;;;;;;;3.61;100.00;98132.56;5002115;28;20796;-71
2020/12/16 00:28:15;;;;;;;27.53;20.50;;;;;;;3.61;100.00;98135.19;5000361;28;20228;-71
2020/12/16 00:30:47;;;;;;;25.40;20.60;;;;;;;3.68;100.00;98139.97;4955940;28;20244;-72
2020/12/16 00:33:16;;;;;;;24.73;19.13;;;;;;;3.65;100.00;98143.66;5002468;28;20551;-71
2020/12/16 00:35:43;;;;;;;23.00;20.00;;;;;;;3.66;100.00;98142.72;4999488;28;20327;-71
2020/12/16 00:38:10;;;;;;;23.40;18.77;;;;;;;3.75;100.00;98144.63;4988416;28;20232;-71
2020/12/16 00:40:38;;;;;;;24.53;20.10;;;;;;;3.75;100.00;98141.16;4988541;28;20218;-69
2020/12/16 00:43:05;;;;;;;25.77;20.50;;;;;;;3.86;100.00;98138.56;5000776;28;20209;-71
2020/12/16 00:45:32;;;;;;;24.53;19.00;;;;;;;3.74;100.00;98140.34;4958572;28;20245;-69
2020/12/16 00:47:59;;;;;;;21.70;19.27;;;;;;;3.81;100.00;98143.34;5000891;28;20220;-71
2020/12/16 00:50:27;;;;;;;24.33;20.00;;;;;;;3.65;100.00;98143.66;4999301;28;20444;-68
2020/12/16 00:52:54;;;;;;;21.80;18.40;;;;;;;3.68;100.00;98142.59;4985561;28;20440;-71
2020/12/16 00:55:21;;;;;;;23.37;19.13;;;;;;;3.64;100.00;98149.88;4989392;28;20212;-69
2020/12/16 00:57:48;;;;;;;28.50;20.50;;;;;;;3.63;100.00;98153.44;4998463;28;20443;-71
2020/12/16 01:00:17;;;;;;;23.43;19.20;;;;;;;3.65;100.00;98150.69;4969279;28;20239;-71
2020/12/16 01:02:44;;;;;;;24.67;19.00;;;;;;;3.66;100.00;98155.81;5004737;28;20903;-71
2020/12/16 01:05:12;;;;;;;24.50;19.23;;;;;;;3.68;100.00;98150.44;5000981;28;20630;-72
2020/12/16 01:07:40;;;;;;;24.17;19.50;;;;;;;3.71;100.00;98156.31;4988303;28;20529;-71
2020/12/16 01:10:08;;;;;;;24.30;19.30;;;;;;;3.84;100.00;98155.38;4988622;28;20208;-71
2020/12/16 01:12:38;;;;;;;22.93;18.83;;;;;;;3.68;100.00;98160.94;5004889;28;20686;-69
2020/12/16 01:15:07;;;;;;;23.83;18.73;;;;;;;3.81;100.00;98158.22;4999221;28;20212;-71
2020/12/16 01:17:38;;;;;;;22.93;19.63;;;;;;;3.82;100.00;98162.50;4962712;28;20247;-68
2020/12/16 01:20:06;;;;;;;25.50;19.23;;;;;;;3.92;100.00;98163.47;5007055;28;20298;-72
2020/12/16 01:22:37;;;;;;;25.53;20.03;;;;;;;3.85;100.00;98160.50;4996132;28;20212;-68
2020/12/16 01:25:05;;;;;;;25.40;19.37;;;;;;;3.84;100.00;98155.38;5007660;28;20208;-71
2020/12/16 01:27:33;;;;;;;20.70;18.27;;;;;;;3.76;100.00;98166.41;4989694;28;20267;-69
2020/12/16 01:30:00;;;;;;;26.13;20.93;;;;;;;3.65;100.00;98176.91;5002784;28;20197;-71
2020/12/16 01:32:27;;;;;;;22.43;19.03;;;;;;;3.74;100.00;98170.94;4967210;28;20283;-69
2020/12/16 01:34:54;;;;;;;24.43;20.20;;;;;;;3.66;100.00;98176.78;5004367;28;20208;-72
2020/12/16 01:37:21;;;;;;;24.17;19.77;;;;;;;3.79;100.00;98181.09;5007735;28;20220;-69
2020/12/16 01:39:48;;;;;;;24.90;19.77;;;;;;;3.89;100.00;98174.19;4992428;28;20334;-70
2020/12/16 01:42:16;;;;;;;21.47;18.80;;;;;;;3.86;100.00;98177.06;4997203;28;20326;-71
2020/12/16 01:44:42;;;;;;;27.93;21.23;;;;;;;3.92;100.00;98184.44;5004402;28;20212;-71
2020/12/16 01:47:09;;;;;;;23.03;18.80;;;;;;;3.98;100.00;98189.25;5009406;28;20700;-72
2020/12/16 01:49:36;;;;;;;22.63;20.03;;;;;;;3.99;100.00;98179.56;4964615;28;20243;-68
2020/12/16 01:52:05;;;;;;;22.27;19.43;;;;;;;3.86;100.00;98185.78;5007955;28;20216;-70
2020/12/16 01:54:35;;;;;;;23.63;20.13;;;;;;;3.80;100.00;98190.63;4992049;28;20252;-69
2020/12/16 01:57:04;;;;;;;21.93;19.27;;;;;;;3.80;100.00;98182.78;4994876;28;20225;-72
2020/12/16 01:59:36;;;;;;;24.87;20.57;;;;;;;3.86;100.00;98177.91;5000551;28;20291;-69
2020/12/16 02:02:03;;;;;;;21.93;18.20;;;;;;;3.74;100.00;98189.31;5009058;28;20204;-72
2020/12/16 02:04:35;;;;;;;25.80;20.57;;;;;;;3.86;100.00;98179.69;4966200;28;20232;-69
2020/12/16 02:07:06;;;;;;;24.07;19.80;;;;;;;3.72;100.00;98184.19;5004631;28;20668;-69
2020/12/16 02:09:38;;;;;;;21.60;19.20;;;;;;;3.79;100.00;98178.47;4994268;28;20619;-69
2020/12/16 02:12:13;;;;;;;22.80;19.03;;;;;;;3.89;100.00;98175.03;4997967;28;20367;-71
2020/12/16 02:14:41;;;;;;;21.43;18.80;;;;;;;4.07;100.00;98176.38;5005579;28;20200;-70
2020/12/16 02:17:08;;;;;;;20.27;18.07;;;;;;;4.07;100.00;98174.56;5012175;28;20228;-72
2020/12/16 02:19:40;;;;;;;24.03;18.63;;;;;;;4.03;100.00;98179.22;4969207;28;20215;-69
2020/12/16 02:22:08;;;;;;;23.70;19.43;;;;;;;3.91;100.00;98167.91;5008287;28;20208;-71
2020/12/16 02:24:39;;;;;;;24.53;20.90;;;;;;;3.81;100.00;98166.94;4998111;28;20222;-69
2020/12/16 02:27:08;;;;;;;24.40;19.23;;;;;;;3.99;100.00;98163.84;5007135;28;20242;-72
2020/12/16 02:29:36;;;;;;;25.03;18.83;;;;;;;4.02;100.00;98159.22;4992135;28;20208;-69
2020/12/16 02:32:03;;;;;;;22.13;19.30;;;;;;;3.78;100.00;98155.84;5011521;28;20243;-72
2020/12/16 02:34:30;;;;;;;24.30;19.33;;;;;;;3.73;100.00;98157.03;4990789;28;20215;-68
2020/12/16 02:36:57;;;;;;;25.27;20.13;;;;;;;3.78;100.00;98159.28;4975396;28;20283;-69
2020/12/16 02:39:24;;;;;;;22.90;19.07;;;;;;;3.67;100.00;98161.88;4990572;28;20279;-71
2020/12/16 02:41:58;;;;;;;23.67;19.53;;;;;;;3.67;100.00;98178.47;4983742;28;20208;-69
2020/12/16 02:44:26;;;;;;;26.60;20.27;;;;;;;3.85;100.00;98167.53;4994671;28;20255;-71
2020/12/16 02:46:57;;;;;;;24.83;19.97;;;;;;;4.04;100.00;98166.94;5004557;28;20235;-69
2020/12/16 02:49:24;;;;;;;22.90;19.57;;;;;;;3.96;100.00;98157.03;5003957;28;20204;-71
2020/12/16 02:51:51;;;;;;;24.70;19.63;;;;;;;3.88;100.00;98165.50;4976388;28;20212;-69
2020/12/16 02:54:18;;;;;;;24.30;18.67;;;;;;;3.84;100.00;98157.97;5011411;28;20216;-72
2020/12/16 02:56:47;;;;;;;24.73;19.53;;;;;;;3.91;100.00;98164.44;4976186;28;20255;-69
2020/12/16 02:59:15;;;;;;;23.93;19.87;;;;;;;3.81;100.00;98166.09;4994644;28;20224;-70
2020/12/16 03:01:42;;;;;;;23.70;19.23;;;;;;;3.74;100.00;98163.09;5005067;28;20212;-69
2020/12/16 03:04:09;;;;;;;23.57;19.80;;;;;;;3.70;100.00;98156.41;5009280;28;20283;-71
2020/12/16 03:06:36;;;;;;;22.10;19.57;;;;;;;3.66;100.00;98158.44;4977800;28;20239;-69
2020/12/16 03:09:03;;;;;;;24.77;19.50;;;;;;;3.58;100.00;98166.03;5006401;28;20546;-72
2020/12/16 03:11:31;;;;;;;23.90;19.83;;;;;;;3.45;100.00;98166.13;4992088;28;20788;-69
2020/12/16 03:13:58;;;;;;;23.10;20.43;;;;;;;3.33;100.00;98167.88;4997660;28;20612;-71
2020/12/16 03:16:25;;;;;;;23.63;19.57;;;;;;;3.25;100.00;98172.84;4996888;28;20208;-69
2020/12/16 03:18:53;;;;;;;22.03;18.40;;;;;;;3.28;100.00;98172.63;5003215;28;20813;-71
2020/12/16 03:21:24;;;;;;;24.20;20.00;;;;;;;3.22;100.00;98176.53;4983342;28;20267;-71
2020/12/16 03:23:51;;;;;;;21.60;18.83;;;;;;;3.34;100.00;98177.41;4989544;28;20208;-69
2020/12/16 03:26:18;;;;;;;24.07;19.60;;;;;;;3.27;100.00;98173.56;4990731;28;20483;-71
2020/12/16 03:28:46;;;;;;;24.30;19.90;;;;;;;3.24;100.00;98179.88;4985888;28;20655;-69
2020/12/16 03:31:13;;;;;;;22.37;19.67;;;;;;;3.46;100.00;98186.97;4990228;28;20445;-72
2020/12/16 03:33:41;;;;;;;22.07;18.17;;;;;;;3.36;100.00;98180.75;5010665;28;20200;-71
2020/12/16 03:36:09;;;;;;;24.97;19.73;;;;;;;3.29;100.00;98182.16;4974246;28;20649;-71
2020/12/16 03:38:37;;;;;;;23.87;19.20;;;;;;;3.32;100.00;98179.31;5008786;28;20208;-72
2020/12/16 03:41:04;;;;;;;23.90;19.40;;;;;;;3.35;100.00;98186.09;5000518;28;20437;-69
2020/12/16 03:43:31;;;;;;;22.03;19.13;;;;;;;3.35;100.00;98175.59;4971463;28;20673;-71
2020/12/16 03:45:58;;;;;;;27.10;21.03;;;;;;;3.45;100.00;98181.84;4989850;28;20240;-69
2020/12/16 03:48:25;;;;;;;22.37;18.93;;;;;;;3.53;100.00;98182.13;5008741;28;20216;-71
2020/12/16 03:50:52;;;;;;;22.03;18.33;;;;;;;3.50;100.00;98184.97;4991794;28;20215;-69
2020/12/16 03:53:20;;;;;;;23.73;18.93;;;;;;;3.40;100.00;98187.44;4993812;28;20422;-72
2020/12/16 03:55:47;;;;;;;19.90;17.80;;;;;;;3.50;100.00;98184.97;5006628;28;20207;-69
2020/12/16 03:58:14;;;;;;;21.83;18.43;;;;;;;3.36;100.00;98179.91;4993008;28;20811;-71
2020/12/16 04:00:41;;;;;;;24.03;19.30;;;;;;;3.42;100.00;98189.94;4987073;28;20212;-72
2020/12/16 04:03:08;;;;;;;23.17;19.07;;;;;;;3.47;100.00;98183.41;4992726;28;20208;-71
2020/12/16 04:05:35;;;;;;;24.57;18.13;;;;;;;3.26;100.00;98183.19;5012531;28;20212;-71
2020/12/16 04:08:02;;;;;;;22.23;18.50;;;;;;;3.10;100.00;98177.44;4966953;28;20764;-69
2020/12/16 04:10:32;;;;;;;20.43;18.20;;;;;;;3.03;100.00;98171.78;4985908;28;20906;-72
2020/12/16 04:12:59;;;;;;;20.57;18.40;;;;;;;2.99;100.00;98178.22;4992826;28;20220;-71
2020/12/16 04:15:26;;;;;;;21.70;17.93;;;;;;;2.89;100.00;98188.50;4980261;28;20221;-69
2020/12/16 04:17:52;;;;;;;21.30;18.77;;;;;;;2.92;100.00;98184.84;4971209;28;20236;-68
2020/12/16 04:20:19;;;;;;;22.43;18.47;;;;;;;2.92;100.00;98193.50;5004631;28;20377;-71
2020/12/16 04:22:47;;;;;;;21.83;18.30;;;;;;;2.81;100.00;98190.84;4996778;28;20215;-69
2020/12/16 04:25:14;;;;;;;22.33;19.30;;;;;;;2.67;100.00;98191.81;4987156;28;20298;-69
2020/12/16 04:27:41;;;;;;;23.77;18.97;;;;;;;2.70;100.00;98194.22;5002653;28;20231;-72
2020/12/16 04:30:08;;;;;;;23.30;20.50;;;;;;;2.85;100.00;98202.75;4967778;28;20922;-70
2020/12/16 04:32:35;;;;;;;22.83;18.87;;;;;;;2.69;100.00;98205.63;4990282;28;20220;-71
2020/12/16 04:35:03;;;;;;;25.10;19.03;;;;;;;2.56;100.00;98208.28;5003337;28;20486;-70
2020/12/16 04:37:30;;;;;;;23.50;17.77;;;;;;;2.47;100.00;98212.38;5008758;28;20472;-71
2020/12/16 04:39:57;;;;;;;23.13;18.00;;;;;;;2.58;100.00;98216.84;4972528;28;20218;-69
2020/12/16 04:42:24;;;;;;;21.07;17.60;;;;;;;2.60;100.00;98218.44;5012197;28;20232;-71
2020/12/16 04:44:52;;;;;;;22.90;18.87;;;;;;;2.39;100.00;98212.91;4984059;28;20217;-69
2020/12/16 04:47:19;;;;;;;22.33;17.67;;;;;;;2.37;100.00;98213.94;4984027;28;20326;-72
2020/12/16 04:49:46;;;;;;;24.63;17.83;;;;;;;2.56;100.00;98211.75;5011047;28;20414;-70
2020/12/16 04:52:16;;;;;;;21.83;19.37;;;;;;;2.43;100.00;98213.53;5006402;28;20231;-71
2020/12/16 04:54:45;;;;;;;21.93;18.90;;;;;;;2.41;100.00;98218.88;5006670;28;20666;-70
2020/12/16 04:57:12;;;;;;;24.50;19.53;;;;;;;2.48;100.00;98227.16;4988190;28;20501;-71
2020/12/16 04:59:39;;;;;;;22.47;17.80;;;;;;;2.48;100.00;98223.69;4991217;28;20208;-71
2020/12/16 05:02:07;;;;;;;22.13;17.77;;;;;;;2.48;100.00;98231.53;4965671;28;20347;-72
2020/12/16 05:04:35;;;;;;;20.43;18.10;;;;;;;2.68;100.00;98228.38;4994282;28;20543;-72
2020/12/16 05:07:02;;;;;;;23.03;18.73;;;;;;;2.67;100.00;98221.47;4985732;28;20848;-71
2020/12/16 05:09:29;;;;;;;19.43;17.37;;;;;;;2.64;100.00;98215.59;5008805;28;20239;-70
2020/12/16 05:11:57;;;;;;;22.17;18.50;;;;;;;2.59;100.00;98216.75;4974328;28;20223;-69
2020/12/16 05:14:25;;;;;;;23.37;18.17;;;;;;;2.60;100.00;98214.97;4991291;28;20213;-72
2020/12/16 05:16:55;;;;;;;23.27;18.33;;;;;;;2.57;100.00;98208.19;4987681;28;20242;-71
2020/12/16 05:19:37;;;;;;;22.97;19.00;;;;;;;2.56;100.00;98211.75;4990077;28;20223;-70
2020/12/16 05:22:18;;;;;;;22.10;18.43;;;;;;;2.58;100.00;98222.09;4988267;28;20417;-71
2020/12/16 05:24:46;;;;;;;25.20;20.63;;;;;;;2.71;100.00;98222.06;5007477;28;20239;-70
2020/12/16 05:27:16;;;;;;;22.50;19.33;;;;;;;2.71;100.00;98233.38;4974234;28;20256;-72
2020/12/16 05:29:43;;;;;;;22.53;19.30;;;;;;;2.83;100.00;98234.25;4987382;28;20213;-72
2020/12/16 05:32:27;;;;;;;24.33;19.27;;;;;;;2.89;100.00;98233.00;5004877;28;20216;-72
2020/12/16 05:34:56;;;;;;;23.30;19.30;;;;;;;3.02;100.00;98228.56;4984661;28;20208;-72
2020/12/16 05:37:29;;;;;;;24.33;20.47;;;;;;;3.07;100.00;98228.22;4987407;28;20696;-70
2020/12/16 05:39:58;;;;;;;22.53;19.13;;;;;;;2.93;100.00;98226.59;5004607;28;20196;-73
2020/12/16 05:42:25;;;;;;;21.67;18.60;;;;;;;3.14;100.00;98231.25;4974468;28;20220;-70
2020/12/16 05:44:53;;;;;;;25.20;19.37;;;;;;;2.91;100.00;98220.63;5001581;28;20272;-73
2020/12/16 05:47:20;;;;;;;24.50;19.80;;;;;;;2.81;100.00;98219.63;4989799;28;20224;-73
2020/12/16 05:49:47;;;;;;;23.63;19.53;;;;;;;2.89;100.00;98227.78;4975302;28;20219;-72
2020/12/16 05:52:15;;;;;;;22.60;19.17;;;;;;;2.86;100.00;98228.84;4971460;28;20212;-70
2020/12/16 05:54:42;;;;;;;23.83;19.50;;;;;;;2.87;100.00;98235.75;5004165;28;20223;-72
2020/12/16 05:57:12;;;;;;;21.30;18.23;;;;;;;2.83;100.00;98234.25;4978859;28;20251;-69
2020/12/16 05:59:39;;;;;;;22.30;19.70;;;;;;;2.85;100.00;98242.03;5004689;28;20208;-72
2020/12/16 06:02:08;;;;;;;24.37;20.37;;;;;;;2.84;100.00;98240.34;4990290;28;20208;-70
2020/12/16 06:04:36;;;;;;;26.37;19.27;;;;;;;2.86;100.00;98244.53;4982144;28;20213;-72
2020/12/16 06:07:04;;;;;;;23.93;20.60;;;;;;;2.82;100.00;98247.47;4986246;28;20228;-70
2020/12/16 06:09:32;;;;;;;24.10;18.80;;;;;;;2.81;100.00;98245.81;4995437;28;20419;-71
2020/12/16 06:12:05;;;;;;;23.30;19.07;;;;;;;2.82;100.00;98244.88;4987840;28;20220;-70
2020/12/16 06:14:35;;;;;;;26.47;20.20;;;;;;;2.87;100.00;98246.22;4993302;28;20443;-72
2020/12/16 06:17:12;;;;;;;29.57;18.80;;;;;;;2.89;100.00;98249.56;5003819;28;20513;-70
2020/12/16 06:19:43;;;;;;;23.63;19.07;;;;;;;2.93;100.00;98254.56;4984891;28;20604;-70
2020/12/16 06:22:11;;;;;;;23.73;18.77;;;;;;;2.92;100.00;98258.16;4993562;28;20211;-70
2020/12/16 06:24:43;;;;;;;23.90;17.53;;;;;;;2.96;100.00;98265.66;5005986;28;20226;-71
2020/12/16 06:27:12;;;;;;;25.07;19.27;;;;;;;2.90;100.00;98260.84;4980783;28;20231;-70
2020/12/16 06:29:42;;;;;;;24.43;21.03;;;;;;;2.92;100.00;98264.19;5001317;28;20607;-70
2020/12/16 06:32:16;;;;;;;24.90;18.77;;;;;;;2.90;100.00;98263.47;4994660;28;20294;-70
2020/12/16 06:34:45;;;;;;;24.73;19.10;;;;;;;2.98;100.00;98265.56;5005739;28;20223;-72
2020/12/16 06:37:15;;;;;;;22.87;17.43;;;;;;;3.00;100.00;98266.28;4968977;28;20755;-71
2020/12/16 06:39:43;;;;;;;23.70;18.27;;;;;;;2.99;100.00;98270.66;5005532;28;20196;-74
2020/12/16 06:42:10;;;;;;;21.30;17.63;;;;;;;3.30;100.00;98278.13;4984726;28;20205;-71
2020/12/16 06:44:37;;;;;;;21.77;18.53;;;;;;;3.16;100.00;98281.72;5003504;28;20259;-73
2020/12/16 06:47:04;;;;;;;23.60;18.37;;;;;;;3.08;100.00;98279.66;5004051;28;20666;-71
2020/12/16 06:49:38;;;;;;;22.80;18.03;;;;;;;3.03;100.00;98284.38;4999730;28;20205;-72
2020/12/16 06:52:08;;;;;;;21.77;17.03;;;;;;;3.08;100.00;98286.69;4983562;28;20292;-71
2020/12/16 06:54:41;;;;;;;20.73;17.57;;;;;;;3.05;100.00;98285.13;4996943;28;20200;-73
2020/12/16 06:57:18;;;;;;;22.83;17.67;;;;;;;3.10;100.00;98287.41;5012324;28;20216;-71
2020/12/16 06:59:56;;;;;;;22.53;18.57;;;;;;;3.23;100.00;98287.38;4980637;28;20681;-72
2020/12/16 07:02:28;;;;;;;24.70;18.90;;;;;;;3.27;100.00;98294.06;4986328;28;20416;-73
2020/12/16 07:04:56;;;;;;;23.70;17.83;;;;;;;3.19;100.00;98292.81;4995988;28;20212;-71
2020/12/16 07:07:57;;;;;;;22.83;18.37;;;;;;;3.38;100.00;98296.75;4970323;28;20247;-67
2020/12/16 07:10:47;;;;;;;23.50;18.63;;;;;;;3.28;100.00;98291.31;4938147;28;20456;-69
2020/12/16 07:13:33;;;;;;;21.57;18.53;;;;;;;3.15;100.00;98287.91;4933026;28;20219;-69
2020/12/16 07:16:07;;;;;;;21.73;18.13;;;;;;;3.15;100.00;98298.41;4956636;28;20704;-67
2020/12/16 07:18:55;;;;;;;30.07;20.80;;;;;;;3.55;100.00;98306.00;4995004;28;20242;-67
2020/12/16 07:21:31;;;;;;;21.23;18.97;;;;;;;3.57;100.00;98314.59;4985521;28;20875;-68
2020/12/16 07:24:09;;;;;;;24.53;21.23;;;;;;;3.61;100.00;98312.59;5007292;28;20217;-70
2020/12/16 07:26:48;;;;;;;24.80;20.27;;;;;;;3.40;100.00;98310.56;4994593;28;20228;-70
2020/12/16 07:29:36;;;;;;;22.73;20.13;;;;;;;3.43;100.00;98314.75;4974315;28;20545;-72
2020/12/16 07:32:05;;;;;;;23.40;18.33;;;;;;;3.52;100.00;98321.94;4993799;28;20327;-71
2020/12/16 07:34:34;;;;;;;23.70;17.60;;;;;;;3.72;100.00;98327.50;4994576;28;20219;-70
2020/12/16 07:37:03;;;;;;;25.77;19.63;;;;;;;3.73;100.00;98321.31;4991553;28;20221;-69
2020/12/16 07:39:32;;;;;;;22.30;17.90;;;;;;;3.71;100.00;98324.06;5013642;28;20742;-72
2020/12/16 07:42:00;;;;;;;22.43;18.53;;;;;;;3.79;100.00;98328.75;4991393;28;20211;-68
2020/12/16 07:44:28;;;;;;;23.57;18.97;;;;;;;3.73;100.00;98327.41;5009267;28;20680;-71
2020/12/16 07:47:03;;;;;;;24.50;19.57;;;;;;;3.74;100.00;98330.84;4980539;28;20235;-69
2020/12/16 07:49:32;;;;;;;22.83;18.73;;;;;;;3.92;100.00;98333.91;5000360;28;20751;-72
2020/12/16 07:52:02;;;;;;;23.20;17.73;;;;;;;3.73;100.00;98332.66;5009840;28;20232;-69
2020/12/16 07:54:30;;;;;;;21.27;18.77;;;;;;;3.71;100.00;98331.09;4989206;28;20219;-71
2020/12/16 07:56:59;;;;;;;23.50;18.73;;;;;;;3.89;100.00;98337.63;4993262;28;20260;-71
2020/12/16 07:59:28;;;;;;;21.50;18.40;;;;;;;3.92;100.00;98331.28;5011604;28;20205;-73
2020/12/16 08:02:08;;;;;;;22.87;18.17;;;;;;;3.77;100.00;98335.88;4974810;28;20320;-69
2020/12/16 08:04:36;;;;;;;23.53;18.03;;;;;;;3.95;100.00;98343.34;5005395;28;20200;-73
2020/12/16 08:07:13;;;;;;;19.77;17.17;;;;;;;3.99;100.00;98345.66;4991967;28;20304;-73
2020/12/16 08:09:53;;;;;;;20.53;18.40;;;;;;;3.79;100.00;98351.50;4984810;28;20275;-72
2020/12/16 08:12:21;;;;;;;20.63;17.43;;;;;;;3.78;100.00;98349.81;5003115;28;20199;-72
2020/12/16 08:14:49;;;;;;;20.63;18.17;;;;;;;3.73;100.00;98353.63;4992292;28;20219;-70
2020/12/16 08:17:17;;;;;;;21.73;18.73;;;;;;;3.78;100.00;98352.44;4977096;28;21720;-71
2020/12/16 08:19:44;;;;;;;23.10;18.53;;;;;;;4.06;100.00;98356.50;5008227;28;20628;-69
2020/12/16 08:22:12;;;;;;;25.13;18.10;;;;;;;4.09;100.00;98355.44;4994917;28;20402;-72
2020/12/16 08:24:40;;;;;;;21.47;17.50;;;;;;;4.10;100.00;98355.31;4989612;28;20612;-71
2020/12/16 08:27:18;;;;;;;20.30;16.60;;;;;;;4.12;100.00;98352.59;5006646;28;20541;-70
2020/12/16 08:29:45;;;;;;;19.93;16.60;;;;;;;4.21;100.00;98354.53;4990220;28;20217;-69
2020/12/16 08:32:24;;;;;;;20.30;17.13;;;;;;;3.98;100.00;98366.72;4973955;28;20582;-70
2020/12/16 08:34:52;;;;;;;21.10;17.90;;;;;;;4.04;100.00;98358.41;5005089;28;20518;-70
2020/12/16 08:37:20;;;;;;;17.90;15.97;;;;;;;3.99;100.00;98358.75;4986418;28;20296;-69
2020/12/16 08:39:48;;;;;;;21.97;17.20;;;;;;;4.01;100.00;98359.47;5004288;28;20208;-70
2020/12/16 08:42:22;;;;;;;20.30;17.80;;;;;;;3.76;100.00;98358.66;4994409;28;20497;-72
2020/12/16 08:44:50;;;;;;;21.57;16.90;;;;;;;3.82;100.00;98362.63;4991025;28;20214;-71
2020/12/16 08:47:24;;;;;;;22.40;18.73;;;;;;;3.93;100.00;98361.81;5009319;28;20418;-72
2020/12/16 08:49:51;;;;;;;20.00;16.70;;;;;;;3.90;100.00;98364.66;4972822;28;20475;-70
2020/12/16 08:52:18;;;;;;;24.30;19.63;;;;;;;3.97;100.00;98363.25;4991540;28;20523;-73
2020/12/16 08:54:45;;;;;;;22.67;17.13;;;;;;;4.00;100.00;98368.28;5006879;28;20679;-70
2020/12/16 08:57:21;;;;;;;19.87;17.20;;;;;;;3.97;100.00;98370.28;4985231;28;20224;-69
2020/12/16 08:59:48;;;;;;;22.37;17.27;;;;;;;4.13;100.00;98370.81;4987537;28;20684;-69
2020/12/16 09:02:16;;;;;;;21.33;18.40;;;;;;;4.06;100.00;98374.84;5008777;28;20464;-72
2020/12/16 09:04:44;;;;;;;19.40;16.53;;;;;;;4.07;100.00;98378.31;4976632;28;20339;-71
2020/12/16 09:07:13;;;;;;;19.70;16.03;;;;;;;4.19;100.00;98380.88;4992819;28;20419;-70
2020/12/16 09:09:41;;;;;;;20.33;16.80;;;;;;;4.27;100.00;98388.16;5006653;28;20231;-71
2020/12/16 09:12:11;;;;;;;19.03;16.60;;;;;;;4.29;100.00;98390.69;4978559;28;20765;-74
2020/12/16 09:14:38;;;;;;;20.27;16.20;;;;;;;4.28;100.00;98389.00;4987915;28;20683;-73
2020/12/16 09:17:07;;;;;;;16.77;15.03;;;;;;;4.24;100.00;98391.03;4999277;28;20783;-73
2020/12/16 09:19:35;;;;;;;22.53;15.97;;;;;;;4.21;100.00;98399.13;4973801;28;20228;-73
2020/12/16 09:22:03;;;;;;;57.70;38.07;;;;;;;4.30;100.00;98400.22;4987666;28;20209;-71
2020/12/16 09:24:32;;;;;;;38.80;28.57;;;;;;;4.20;100.00;98390.44;5008929;28;20464;-73
2020/12/16 09:27:06;;;;;;;22.97;16.80;;;;;;;4.17;100.00;98390.66;4983141;28;20240;-70
2020/12/16 09:29:33;;;;;;;19.03;17.03;;;;;;;4.25;100.00;98386.63;5006564;28;20205;-71
2020/12/16 09:32:08;;;;;;;19.60;17.50;;;;;;;4.27;100.00;98384.72;4985759;28;20722;-70
2020/12/16 09:34:39;;;;;;;20.73;17.07;;;;;;;4.29;100.00;98385.44;4979430;28;20220;-73
2020/12/16 09:37:11;;;;;;;20.70;17.27;;;;;;;4.23;100.00;98384.09;5008841;28;20446;-72
2020/12/16 09:39:38;;;;;;;22.80;18.30;;;;;;;4.26;100.00;98383.88;4990253;28;20217;-70
2020/12/16 09:42:08;;;;;;;18.60;16.77;;;;;;;4.33;100.00;98381.63;5003959;28;20448;-73
2020/12/16 09:44:35;;;;;;;19.67;17.57;;;;;;;4.33;100.00;98381.63;4983835;28;20218;-72
2020/12/16 09:47:26;;;;;;;18.40;16.47;;;;;;;4.32;100.00;98379.97;4984510;28;20225;-73
2020/12/16 09:49:58;;;;;;;18.73;16.83;;;;;;;4.26;100.00;98378.63;4964959;28;20426;-74
2020/12/16 09:52:28;;;;;;;21.20;17.70;;;;;;;4.27;100.00;98376.84;5000316;28;20212;-74
2020/12/16 09:54:57;;;;;;;19.93;16.67;;;;;;;4.38;100.00;98374.25;4996525;28;20204;-72
2020/12/16 09:57:24;;;;;;;18.73;16.57;;;;;;;4.40;100.00;98377.59;5007500;28;20815;-73
2020/12/16 09:59:56;;;;;;;18.27;16.27;;;;;;;4.47;100.00;98383.22;4987076;28;20299;-73
2020/12/16 10:02:23;;;;;;;18.33;16.43;;;;;;;4.56;100.00;98376.44;4988162;28;20414;-73
2020/12/16 10:04:49;;;;;;;19.77;16.20;;;;;;;4.54;100.00;98375.69;4980078;28;20262;-74
2020/12/16 10:07:16;;;;;;;20.50;16.10;;;;;;;4.58;100.00;98379.81;5004264;28;20228;-70
2020/12/16 10:09:52;;;;;;;18.13;16.20;;;;;;;4.53;100.00;98372.25;4996891;28;20584;-73
2020/12/16 10:12:22;;;;;;;20.10;17.27;;;;;;;4.52;100.00;98375.84;4994802;28;20204;-70
2020/12/16 10:14:50;;;;;;;18.83;16.57;;;;;;;4.64;100.00;98371.44;4983562;28;20690;-73
2020/12/16 10:17:20;;;;;;;22.17;17.47;;;;;;;4.51;100.00;98370.69;4986406;28;20719;-71
2020/12/16 10:19:47;;;;;;;20.27;17.20;;;;;;;4.54;100.00;98378.31;4977739;28;20224;-73
2020/12/16 10:22:14;;;;;;;19.30;17.13;;;;;;;4.92;100.00;98367.53;5008642;28;20219;-71
2020/12/16 10:24:41;;;;;;;23.83;18.27;;;;;;;4.99;100.00;98369.69;4993619;28;20699;-73
2020/12/16 10:27:08;;;;;;;20.73;18.23;;;;;;;5.05;100.00;98369.19;5004472;28;20243;-71
2020/12/16 10:29:35;;;;;;;20.00;17.90;;;;;;;5.23;99.71;98364.28;4985833;28;20204;-73
2020/12/16 10:32:02;;;;;;;20.00;17.90;;;;;;;5.32;99.08;98358.34;4998160;28;20696;-74
2020/12/16 10:34:29;;;;;;;20.27;16.77;;;;;;;5.54;95.87;98350.53;5008951;28;20434;-73
2020/12/16 10:36:56;;;;;;;19.80;17.73;;;;;;;5.48;95.84;98352.66;4982474;28;20239;-74
2020/12/16 10:39:23;;;;;;;19.47;17.23;;;;;;;5.45;97.13;98349.47;5009097;28;20321;-71
2020/12/16 10:41:53;;;;;;;20.17;18.07;;;;;;;5.62;95.19;98356.81;5000864;28;20246;-72
2020/12/16 10:44:22;;;;;;;17.47;15.83;;;;;;;5.67;94.02;98359.09;4992289;28;20719;-71
2020/12/16 10:46:53;;;;;;;21.53;19.03;;;;;;;5.64;93.33;98352.28;5006244;28;20232;-73
2020/12/16 10:49:21;;;;;;;20.17;17.90;;;;;;;5.37;93.96;98347.44;4994481;28;20337;-71
2020/12/16 10:51:48;;;;;;;23.47;20.50;;;;;;;5.32;95.53;98353.06;4982605;28;20456;-73
2020/12/16 10:54:15;;;;;;;21.67;18.67;;;;;;;5.57;94.21;98345.03;5005545;28;20208;-71
2020/12/16 10:56:43;;;;;;;19.97;17.87;;;;;;;5.65;93.22;98348.69;4995532;28;20871;-72
2020/12/16 10:59:10;;;;;;;24.30;20.00;;;;;;;5.82;91.35;98349.13;5011428;28;20327;-72
2020/12/16 11:01:38;;;;;;;20.97;18.30;;;;;;;5.92;89.98;98343.97;4994419;28;20727;-75
2020/12/16 11:04:08;;;;;;;19.77;17.70;;;;;;;5.82;91.28;98335.97;4994785;28;20216;-72
2020/12/16 11:06:35;;;;;;;19.33;17.23;;;;;;;5.83;92.12;98331.53;4987678;28;20235;-73
2020/12/16 11:09:04;;;;;;;18.97;17.00;;;;;;;5.86;92.17;98328.66;4992746;28;20754;-73
2020/12/16 11:11:31;;;;;;;18.97;16.97;;;;;;;6.08;89.66;98325.16;5008179;28;20557;-73
2020/12/16 11:13:57;;;;;;;21.03;16.53;;;;;;;5.97;90.87;98323.38;4992546;28;20259;-74
2020/12/16 11:16:29;;;;;;;21.53;18.73;;;;;;;5.96;90.76;98321.69;4973015;28;20295;-74
2020/12/16 11:18:58;;;;;;;19.77;17.73;;;;;;;5.82;89.56;98319.34;4992525;28;20545;-72
2020/12/16 11:21:25;;;;;;;21.70;19.27;;;;;;;5.52;92.49;98313.00;4979092;28;20696;-73
2020/12/16 11:23:52;;;;;;;21.40;18.50;;;;;;;5.57;92.61;98313.47;5005417;28;20201;-74
2020/12/16 11:26:19;;;;;;;18.83;16.30;;;;;;;5.92;90.40;98309.75;5005793;28;20239;-76